CDT,Max TemperatureF,Mean TemperatureF,Min TemperatureF,Max Dew PointF,MeanDew PointF,Min DewpointF,Max Humidity, Mean Humidity, Min Humidity, Max Sea Level PressureIn, Mean Sea Level PressureIn, Min Sea Level PressureIn, Max VisibilityMiles, Mean VisibilityMiles, Min VisibilityMiles, Max Wind SpeedMPH, Mean Wind SpeedMPH, Max Gust SpeedMPH,PrecipitationIn, CloudCover, Events, WindDirDegrees
2013-9-1,70,59,48,61,53,46,93,69,44,30.05,29.93,29.80,10,10,5,24,13,30,T,5,Rain,347
2013-9-2,73,58,42,50,46,41,100,68,35,30.12,30.05,29.96,10,10,10,9,4,15,0.00,1,,181
2013-9-3,88,70,51,65,55,47,89,66,42,30.03,29.93,29.87,10,10,10,22,9,28,0.00,3,,207
2013-9-4,73,60,46,50,46,41,93,65,36,30.18,30.14,30.05,10,10,10,13,6,16,0.00,4,,11
2013-9-5,87,66,45,64,54,44,93,68,43,30.17,30.07,29.92,10,10,10,16,7,23,0.00,3,,159
2013-9-6,92,79,66,71,67,64,93,69,44,29.91,29.84,29.78,10,10,10,12,5,15,0.00,3,,181
2013-9-7,84,73,62,68,57,50,90,62,34,30.06,29.99,29.84,10,10,10,20,12,25,0.04,4,Rain,19
2013-9-8,66,63,60,63,59,51,93,78,63,30.04,29.91,29.79,10,10,9,15,7,18,0.07,7,Rain,112
2013-9-9,70,65,59,65,63,62,100,91,81,29.79,29.69,29.60,10,9,4,16,7,20,0.38,8,Rain,9
2013-9-10,78,67,55,61,58,54,100,73,46,29.86,29.80,29.73,10,8,0,14,6,18,T,5,Fog-Rain,265
2013-9-11,78,64,50,60,52,45,100,66,31,30.15,30.00,29.85,10,10,10,28,10,35,0.00,2,,301
2013-9-12,72,59,46,53,48,44,96,68,40,30.28,30.22,30.15,10,10,10,14,6,21,0.00,2,,321
2013-9-13,78,60,42,52,48,41,96,66,36,30.20,30.06,29.87,10,10,10,22,11,28,0.00,0,,190
2013-9-14,66,60,53,61,55,49,97,82,67,29.98,29.85,29.79,10,10,10,22,9,26,0.08,6,Rain,189
2013-9-15,66,53,40,47,41,37,96,67,37,30.31,30.21,29.99,10,10,10,16,8,22,0.00,1,,5
2013-9-16,71,54,36,48,43,36,93,69,44,30.32,30.21,30.04,10,10,10,22,12,28,0.00,0,,162
2013-9-17,65,58,50,57,52,44,89,78,67,30.03,29.86,29.75,10,10,10,22,14,28,0.00,6,,168
2013-9-18,73,67,60,67,62,57,100,87,73,29.74,29.62,29.53,10,8,2,25,8,30,0.01,7,Rain,159
2013-9-19,73,63,53,66,58,50,100,75,49,29.84,29.67,29.56,10,6,0,21,11,26,0.04,6,Fog-Rain,300
2013-9-20,61,55,48,50,47,43,89,73,57,29.97,29.90,29.85,10,9,2,18,9,24,0.07,8,Rain,330
2013-9-21,61,49,36,43,39,35,100,73,46,30.01,29.95,29.85,10,9,2,13,5,16,0.00,1,,81
2013-9-22,78,62,45,55,49,41,86,65,43,29.85,29.67,29.54,10,10,10,31,18,38,0.00,2,,144
2013-9-23,80,70,60,56,52,51,78,57,36,29.73,29.59,29.54,10,10,10,30,19,39,0.00,4,,173
2013-9-24,80,66,51,56,48,31,93,55,17,29.86,29.82,29.74,10,10,10,15,6,20,T,3,,214
2013-9-25,77,62,46,55,51,45,100,72,43,29.85,29.77,29.69,10,10,7,28,14,33,0.00,3,,149
2013-9-26,78,66,53,59,55,51,86,67,48,29.76,29.66,29.60,10,10,10,29,14,36,0.00,4,,171
2013-9-27,55,52,49,52,49,46,96,84,72,29.79,29.75,29.72,10,9,2,13,5,16,0.28,7,Rain-Thunderstorm,326
2013-9-28,60,54,47,51,48,41,96,78,60,29.74,29.68,29.57,10,8,4,20,8,22,1.00,6,Rain,293
2013-9-29,77,59,41,52,45,39,93,64,35,29.75,29.64,29.47,10,10,10,23,10,29,0.00,3,,184
2013-9-30,75,64,52,51,47,40,89,60,31,29.51,29.47,29.40,10,10,10,26,7,35,T,4,,212